Gesten

EKGE · 南丹麦大区, 丹麦

2024年7月15日 09:002024年7月15日 17:00有效
时间
星期一
09:00
>40%
星期一
10:00
>40%
星期一
11:00
星期一
12:00
星期一
13:00
星期一
14:00
星期一
15:00
星期一
16:00
代码
IFR
IFR
MVFR
MVFR
MVFR
MVFR
MVFR
MVFR
天气
碎云
碎云
碎云
碎云
碎云
碎云
碎云
碎云
能见度
9 km
9 km
9 km
9 km
9 km
9 km
9 km
9 km
天花板
800 ft
800 ft
1.800 ft
1.800 ft
1.800 ft
1.800 ft
1.800 ft
1.800 ft
220°
220°
220°
220°
220°
220°
220°
220°
220°
220°
220°
220°
220°
220°
220°
220°
速度
10 kt
10 kt
10 kt
10 kt
10 kt
10 kt
10 kt
10 kt
阵风
温度/星期日

原版的

TAF EKVD 150655Z 1507/1515 22010KT 9000 BKN018
TEMPO 1507/1509 BKN008 FEW015CB

TAF Gesten

Gesten是,丹麦中的格利德菲尔德。 该机场位于纬度55,55202和经度9,18593。 该机场有一条跑道: 9/27. 本场的ICAO机场代码为EKGE。 机场在Kobenhavn FIR中。

该航空气象观测是针对Kolding Vamdrup Airfield在2024年7月15日 08:55, 当地时间进行的。 从2024年7月15日 09:00到2024年7月15日 17:00, 当地时间有效.

预报

  • 在星期一 09:00和17:00之间

    • 风: 风来自220°方向,速度为10 kt。
    • 能见度: 9 km
    • 乌云: 碎云在1.800 ft的高度.
  • 暂时在星期一 09:00和11:00之间

    • 乌云: 碎云在800 ft的高度 和 几云 积雨云在1.500 ft的高度.

白天

今天,太阳从05:02升起,在21:56降落。 这适用于Gesten,世界夏令时可能有所不同。 当地时间与世界标准时间之间的时差为+2 小时。 夏令时目前正在进行中。

报告变更